sensor_id;sensor_type;location;lat;lon;timestamp;pressure;altitude;pressure_sealevel;temperature;humidity
47330;BME280;33060;50.178;7.570;2022-10-17T00:02:07;97367.94;;;15.71;94.20
47330;BME280;33060;50.178;7.570;2022-10-17T00:04:34;97369.22;;;15.67;94.63
47330;BME280;33060;50.178;7.570;2022-10-17T00:07:01;97372.00;;;15.66;94.90
47330;BME280;33060;50.178;7.570;2022-10-17T00:09:27;97375.94;;;15.71;94.64
47330;BME280;33060;50.178;7.570;2022-10-17T00:11:54;97373.88;;;15.75;93.58
47330;BME280;33060;50.178;7.570;2022-10-17T00:14:20;97382.38;;;15.69;94.59
47330;BME280;33060;50.178;7.570;2022-10-17T00:16:47;97381.66;;;15.67;94.29
47330;BME280;33060;50.178;7.570;2022-10-17T00:19:14;97384.84;;;15.61;94.63
47330;BME280;33060;50.178;7.570;2022-10-17T00:21:40;97385.78;;;15.60;95.12
47330;BME280;33060;50.178;7.570;2022-10-17T00:24:07;97390.16;;;15.61;94.47
47330;BME280;33060;50.178;7.570;2022-10-17T00:26:33;97388.38;;;15.50;95.35
47330;BME280;33060;50.178;7.570;2022-10-17T00:29:00;97384.59;;;15.52;94.93
47330;BME280;33060;50.178;7.570;2022-10-17T00:31:27;97379.91;;;15.56;94.61
47330;BME280;33060;50.178;7.570;2022-10-17T00:33:53;97386.63;;;15.60;94.13
47330;BME280;33060;50.178;7.570;2022-10-17T00:36:24;97392.06;;;15.59;94.27
47330;BME280;33060;50.178;7.570;2022-10-17T00:38:56;97388.44;;;15.60;94.01
47330;BME280;33060;50.178;7.570;2022-10-17T00:41:30;97391.84;;;15.62;93.67
47330;BME280;33060;50.178;7.570;2022-10-17T00:43:59;97392.22;;;15.57;94.00
47330;BME280;33060;50.178;7.570;2022-10-17T00:46:31;97393.28;;;15.54;93.99
47330;BME280;33060;50.178;7.570;2022-10-17T00:49:03;97401.53;;;15.51;94.35
47330;BME280;33060;50.178;7.570;2022-10-17T00:51:39;97401.09;;;15.46;94.77
47330;BME280;33060;50.178;7.570;2022-10-17T00:54:07;97402.88;;;15.46;94.60
47330;BME280;33060;50.178;7.570;2022-10-17T00:56:35;97402.03;;;15.45;94.57
47330;BME280;33060;50.178;7.570;2022-10-17T00:59:03;97402.31;;;15.42;94.95
47330;BME280;33060;50.178;7.570;2022-10-17T01:01:33;97411.41;;;15.40;95.03
47330;BME280;33060;50.178;7.570;2022-10-17T01:04:00;97403.56;;;15.38;94.94
47330;BME280;33060;50.178;7.570;2022-10-17T01:06:26;97410.56;;;15.39;94.76
47330;BME280;33060;50.178;7.570;2022-10-17T01:08:53;97410.44;;;15.41;94.36
47330;BME280;33060;50.178;7.570;2022-10-17T01:11:36;97406.78;;;15.42;94.39
47330;BME280;33060;50.178;7.570;2022-10-17T01:16:44;97399.44;;;15.34;94.76
47330;BME280;33060;50.178;7.570;2022-10-17T01:22:06;97407.09;;;15.27;95.18
47330;BME280;33060;50.178;7.570;2022-10-17T01:25:05;97399.38;;;15.24;95.61
47330;BME280;33060;50.178;7.570;2022-10-17T01:33:14;97410.50;;;15.18;96.17
47330;BME280;33060;50.178;7.570;2022-10-17T01:36:47;97405.34;;;15.17;96.36
47330;BME280;33060;50.178;7.570;2022-10-17T01:41:42;97390.72;;;15.22;95.99
47330;BME280;33060;50.178;7.570;2022-10-17T01:46:48;97400.72;;;15.19;95.97
47330;BME280;33060;50.178;7.570;2022-10-17T01:49:19;97387.84;;;15.14;96.50
47330;BME280;33060;50.178;7.570;2022-10-17T01:51:51;97394.25;;;15.12;96.70
47330;BME280;33060;50.178;7.570;2022-10-17T01:56:57;97385.06;;;15.16;96.42
47330;BME280;33060;50.178;7.570;2022-10-17T01:59:30;97388.06;;;15.11;96.79
47330;BME280;33060;50.178;7.570;2022-10-17T02:02:00;97386.03;;;15.15;96.52
47330;BME280;33060;50.178;7.570;2022-10-17T02:04:28;97386.03;;;15.15;96.35
47330;BME280;33060;50.178;7.570;2022-10-17T02:06:54;97379.59;;;15.17;96.18
47330;BME280;33060;50.178;7.570;2022-10-17T02:09:23;97389.03;;;15.21;95.56
47330;BME280;33060;50.178;7.570;2022-10-17T02:12:03;97385.13;;;15.25;95.52
47330;BME280;33060;50.178;7.570;2022-10-17T02:15:00;97380.06;;;15.22;95.53
47330;BME280;33060;50.178;7.570;2022-10-17T02:22:50;97381.81;;;15.12;96.36
47330;BME280;33060;50.178;7.570;2022-10-17T02:30:51;97390.88;;;15.10;96.26
47330;BME280;33060;50.178;7.570;2022-10-17T02:33:34;97393.53;;;15.10;96.16
47330;BME280;33060;50.178;7.570;2022-10-17T02:36:06;97393.53;;;15.10;96.17
47330;BME280;33060;50.178;7.570;2022-10-17T02:38:37;97394.63;;;15.07;96.39
47330;BME280;33060;50.178;7.570;2022-10-17T02:41:09;97387.97;;;15.13;95.56
47330;BME280;33060;50.178;7.570;2022-10-17T02:43:38;97387.22;;;15.11;95.83
47330;BME280;33060;50.178;7.570;2022-10-17T02:46:05;97395.47;;;15.08;96.38
47330;BME280;33060;50.178;7.570;2022-10-17T02:48:37;97398.38;;;15.05;96.29
47330;BME280;33060;50.178;7.570;2022-10-17T02:54:08;97393.38;;;15.11;95.59
47330;BME280;33060;50.178;7.570;2022-10-17T02:56:54;97401.00;;;15.16;95.44
47330;BME280;33060;50.178;7.570;2022-10-17T02:59:26;97391.72;;;15.10;95.58
47330;BME280;33060;50.178;7.570;2022-10-17T03:01:54;97397.03;;;15.10;95.57
47330;BME280;33060;50.178;7.570;2022-10-17T03:04:22;97394.63;;;15.07;95.59
47330;BME280;33060;50.178;7.570;2022-10-17T03:06:49;97401.63;;;15.08;95.66
47330;BME280;33060;50.178;7.570;2022-10-17T03:09:16;97396.31;;;15.08;95.58
47330;BME280;33060;50.178;7.570;2022-10-17T03:11:43;97398.25;;;15.06;95.80
47330;BME280;33060;50.178;7.570;2022-10-17T03:14:10;97399.09;;;15.07;95.50
47330;BME280;33060;50.178;7.570;2022-10-17T03:16:36;97401.88;;;15.05;95.92
47330;BME280;33060;50.178;7.570;2022-10-17T03:19:03;97400.91;;;15.06;95.76
47330;BME280;33060;50.178;7.570;2022-10-17T03:21:32;97407.91;;;15.07;95.78
47330;BME280;33060;50.178;7.570;2022-10-17T03:23:59;97404.03;;;15.11;95.29
47330;BME280;33060;50.178;7.570;2022-10-17T03:26:26;97407.91;;;15.07;95.72
47330;BME280;33060;50.178;7.570;2022-10-17T03:28:56;97409.72;;;15.07;95.74
47330;BME280;33060;50.178;7.570;2022-10-17T03:31:25;97411.53;;;15.06;95.46
47330;BME280;33060;50.178;7.570;2022-10-17T03:33:54;97419.78;;;15.03;95.98
47330;BME280;33060;50.178;7.570;2022-10-17T03:36:21;97410.34;;;14.99;96.07
47330;BME280;33060;50.178;7.570;2022-10-17T03:38:52;97416.38;;;15.01;96.18
47330;BME280;33060;50.178;7.570;2022-10-17T03:41:20;97407.34;;;15.04;95.76
47330;BME280;33060;50.178;7.570;2022-10-17T03:43:46;97406.50;;;15.03;95.40
47330;BME280;33060;50.178;7.570;2022-10-17T03:46:13;97410.09;;;15.02;95.70
47330;BME280;33060;50.178;7.570;2022-10-17T03:48:40;97414.56;;;15.02;95.72
47330;BME280;33060;50.178;7.570;2022-10-17T03:51:08;97418.81;;;15.04;95.74
47330;BME280;33060;50.178;7.570;2022-10-17T03:53:45;97412.50;;;15.05;94.94
47330;BME280;33060;50.178;7.570;2022-10-17T03:56:18;97418.91;;;15.03;95.74
47330;BME280;33060;50.178;7.570;2022-10-17T03:58:53;97422.53;;;15.02;95.52
47330;BME280;33060;50.178;7.570;2022-10-17T04:01:20;97425.31;;;15.00;95.34
47330;BME280;33060;50.178;7.570;2022-10-17T04:03:52;97426.03;;;15.02;95.61
47330;BME280;33060;50.178;7.570;2022-10-17T04:06:19;97424.22;;;15.03;95.23
47330;BME280;33060;50.178;7.570;2022-10-17T04:08:48;97440.16;;;15.03;95.09
47330;BME280;33060;50.178;7.570;2022-10-17T04:11:25;97446.34;;;15.03;94.96
47330;BME280;33060;50.178;7.570;2022-10-17T04:13:57;97451.75;;;15.02;94.75
47330;BME280;33060;50.178;7.570;2022-10-17T04:16:26;97445.38;;;15.04;94.55
47330;BME280;33060;50.178;7.570;2022-10-17T04:18:59;97445.47;;;15.03;94.65
47330;BME280;33060;50.178;7.570;2022-10-17T04:21:30;97445.88;;;14.98;94.87
47330;BME280;33060;50.178;7.570;2022-10-17T04:24:02;97450.91;;;15.01;94.55
47330;BME280;33060;50.178;7.570;2022-10-17T04:26:49;97447.28;;;15.02;94.47
47330;BME280;33060;50.178;7.570;2022-10-17T04:29:18;97449.63;;;14.95;94.83
47330;BME280;33060;50.178;7.570;2022-10-17T04:31:47;97440.91;;;14.93;94.71
47330;BME280;33060;50.178;7.570;2022-10-17T04:34:23;97434.16;;;14.89;95.28
47330;BME280;33060;50.178;7.570;2022-10-17T04:36:50;97437.66;;;14.90;95.28
47330;BME280;33060;50.178;7.570;2022-10-17T04:39:17;97439.84;;;14.85;95.66
47330;BME280;33060;50.178;7.570;2022-10-17T04:41:44;97439.25;;;14.81;95.79
47330;BME280;33060;50.178;7.570;2022-10-17T04:44:11;97441.44;;;14.76;96.49
47330;BME280;33060;50.178;7.570;2022-10-17T04:46:43;97440.38;;;14.79;96.68
47330;BME280;33060;50.178;7.570;2022-10-17T04:49:10;97441.22;;;14.79;96.77
47330;BME280;33060;50.178;7.570;2022-10-17T04:51:38;97445.53;;;14.80;96.84
47330;BME280;33060;50.178;7.570;2022-10-17T04:54:25;97451.22;;;14.76;97.27
47330;BME280;33060;50.178;7.570;2022-10-17T04:57:00;97455.47;;;14.78;97.41
47330;BME280;33060;50.178;7.570;2022-10-17T04:59:27;97443.03;;;14.79;97.32
47330;BME280;33060;50.178;7.570;2022-10-17T05:02:07;97447.34;;;14.80;97.43
47330;BME280;33060;50.178;7.570;2022-10-17T05:04:35;97456.63;;;14.85;97.12
47330;BME280;33060;50.178;7.570;2022-10-17T05:07:03;97451.69;;;14.81;97.59
47330;BME280;33060;50.178;7.570;2022-10-17T05:09:45;97448.91;;;14.82;97.80
47330;BME280;33060;50.178;7.570;2022-10-17T05:12:11;97452.28;;;14.84;98.04
47330;BME280;33060;50.178;7.570;2022-10-17T05:14:41;97449.41;;;14.87;98.14
47330;BME280;33060;50.178;7.570;2022-10-17T05:17:08;97445.78;;;14.88;97.98
47330;BME280;33060;50.178;7.570;2022-10-17T05:19:35;97447.81;;;14.85;98.79
47330;BME280;33060;50.178;7.570;2022-10-17T05:22:02;97444.94;;;14.88;98.42
47330;BME280;33060;50.178;7.570;2022-10-17T05:24:29;97449.41;;;14.87;98.80
47330;BME280;33060;50.178;7.570;2022-10-17T05:26:56;97439.63;;;14.88;98.76
47330;BME280;33060;50.178;7.570;2022-10-17T05:29:23;97447.81;;;14.85;99.23
47330;BME280;33060;50.178;7.570;2022-10-17T05:31:56;97446.34;;;14.92;99.25
47330;BME280;33060;50.178;7.570;2022-10-17T05:34:23;97442.16;;;14.89;99.46
47330;BME280;33060;50.178;7.570;2022-10-17T05:36:50;97451.53;;;14.93;99.22
47330;BME280;33060;50.178;7.570;2022-10-17T05:39:19;97450.34;;;14.97;98.88
47330;BME280;33060;50.178;7.570;2022-10-17T05:41:48;97447.69;;;14.97;99.09
47330;BME280;33060;50.178;7.570;2022-10-17T05:44:17;97447.06;;;14.94;99.67
47330;BME280;33060;50.178;7.570;2022-10-17T05:46:48;97452.50;;;15.04;99.21
47330;BME280;33060;50.178;7.570;2022-10-17T05:49:15;97453.78;;;15.09;98.79
47330;BME280;33060;50.178;7.570;2022-10-17T05:51:59;97456.56;;;15.08;99.36
47330;BME280;33060;50.178;7.570;2022-10-17T05:54:26;97461.91;;;15.08;99.46
47330;BME280;33060;50.178;7.570;2022-10-17T05:56:54;97460.22;;;15.07;99.47
47330;BME280;33060;50.178;7.570;2022-10-17T05:59:25;97464.81;;;15.05;99.80
47330;BME280;33060;50.178;7.570;2022-10-17T06:02:00;97469.50;;;15.01;100.00
47330;BME280;33060;50.178;7.570;2022-10-17T06:04:28;97473.50;;;15.07;99.88
47330;BME280;33060;50.178;7.570;2022-10-17T06:06:55;97472.25;;;15.11;99.82
47330;BME280;33060;50.178;7.570;2022-10-17T06:09:22;97468.53;;;15.13;99.58
47330;BME280;33060;50.178;7.570;2022-10-17T06:11:51;97476.81;;;15.20;99.17
47330;BME280;33060;50.178;7.570;2022-10-17T06:14:18;97483.00;;;15.20;98.91
47330;BME280;33060;50.178;7.570;2022-10-17T06:16:48;97483.94;;;15.19;99.15
47330;BME280;33060;50.178;7.570;2022-10-17T06:19:15;97482.75;;;15.23;98.88
47330;BME280;33060;50.178;7.570;2022-10-17T06:21:42;97481.84;;;15.34;98.20
47330;BME280;33060;50.178;7.570;2022-10-17T06:24:12;97481.81;;;15.45;97.25
47330;BME280;33060;50.178;7.570;2022-10-17T06:26:40;97478.19;;;15.46;97.05
47330;BME280;33060;50.178;7.570;2022-10-17T06:29:08;97483.97;;;15.51;96.72
47330;BME280;33060;50.178;7.570;2022-10-17T06:31:41;97490.22;;;15.62;95.48
47330;BME280;33060;50.178;7.570;2022-10-17T06:34:08;97481.63;;;15.58;95.90
47330;BME280;33060;50.178;7.570;2022-10-17T06:36:37;97487.56;;;15.62;95.51
47330;BME280;33060;50.178;7.570;2022-10-17T06:39:04;97502.69;;;15.61;95.67
47330;BME280;33060;50.178;7.570;2022-10-17T06:41:45;97507.09;;;15.72;94.27
47330;BME280;33060;50.178;7.570;2022-10-17T06:44:16;97516.13;;;15.80;93.89
47330;BME280;33060;50.178;7.570;2022-10-17T06:47:01;97510.03;;;15.90;93.16
47330;BME280;33060;50.178;7.570;2022-10-17T06:49:30;97512.59;;;15.91;92.91
47330;BME280;33060;50.178;7.570;2022-10-17T06:52:12;97510.69;;;16.03;91.20
47330;BME280;33060;50.178;7.570;2022-10-17T06:54:49;97509.06;;;16.11;90.69
47330;BME280;33060;50.178;7.570;2022-10-17T06:57:37;97512.19;;;16.17;90.64
47330;BME280;33060;50.178;7.570;2022-10-17T07:00:39;97521.72;;;16.19;90.19
47330;BME280;33060;50.178;7.570;2022-10-17T07:03:06;97515.16;;;16.23;89.54
47330;BME280;33060;50.178;7.570;2022-10-17T07:05:32;97523.09;;;16.34;88.76
47330;BME280;33060;50.178;7.570;2022-10-17T07:07:59;97522.16;;;16.45;88.04
47330;BME280;33060;50.178;7.570;2022-10-17T07:10:26;97527.91;;;16.50;87.67
47330;BME280;33060;50.178;7.570;2022-10-17T07:12:52;97532.31;;;16.61;87.22
47330;BME280;33060;50.178;7.570;2022-10-17T07:15:19;97524.41;;;16.71;86.11
47330;BME280;33060;50.178;7.570;2022-10-17T07:17:48;97523.31;;;16.83;85.76
47330;BME280;33060;50.178;7.570;2022-10-17T07:20:18;97530.63;;;16.90;85.73
47330;BME280;33060;50.178;7.570;2022-10-17T07:22:45;97532.34;;;17.01;84.93
47330;BME280;33060;50.178;7.570;2022-10-17T07:25:11;97531.53;;;17.10;84.30
47330;BME280;33060;50.178;7.570;2022-10-17T07:27:50;97530.16;;;17.16;83.50
47330;BME280;33060;50.178;7.570;2022-10-17T07:30:17;97535.19;;;17.19;84.12
47330;BME280;33060;50.178;7.570;2022-10-17T07:33:00;97544.84;;;17.10;84.24
47330;BME280;33060;50.178;7.570;2022-10-17T07:35:26;97537.53;;;17.03;84.08
47330;BME280;33060;50.178;7.570;2022-10-17T07:37:53;97546.13;;;17.06;83.75
47330;BME280;33060;50.178;7.570;2022-10-17T07:40:20;97542.91;;;17.12;83.53
47330;BME280;33060;50.178;7.570;2022-10-17T07:42:47;97546.53;;;17.11;82.96
47330;BME280;33060;50.178;7.570;2022-10-17T07:45:14;97552.31;;;17.16;82.62
47330;BME280;33060;50.178;7.570;2022-10-17T07:47:42;97551.88;;;17.11;82.15
47330;BME280;33060;50.178;7.570;2022-10-17T07:50:11;97554.69;;;17.10;82.44
47330;BME280;33060;50.178;7.570;2022-10-17T07:52:38;97553.16;;;17.17;82.36
47330;BME280;33060;50.178;7.570;2022-10-17T07:55:05;97550.09;;;17.21;82.24
47330;BME280;33060;50.178;7.570;2022-10-17T07:57:33;97551.16;;;17.09;82.04
47330;BME280;33060;50.178;7.570;2022-10-17T07:59:59;97551.31;;;17.08;82.53
47330;BME280;33060;50.178;7.570;2022-10-17T08:02:26;97557.47;;;17.08;81.94
47330;BME280;33060;50.178;7.570;2022-10-17T08:04:54;97554.28;;;17.14;81.71
47330;BME280;33060;50.178;7.570;2022-10-17T08:07:20;97559.78;;;17.22;81.38
47330;BME280;33060;50.178;7.570;2022-10-17T08:09:53;97544.22;;;17.37;81.02
47330;BME280;33060;50.178;7.570;2022-10-17T08:12:20;97546.16;;;17.26;80.60
47330;BME280;33060;50.178;7.570;2022-10-17T08:14:47;97542.81;;;17.43;80.56
47330;BME280;33060;50.178;7.570;2022-10-17T08:17:13;97551.13;;;17.49;79.79
47330;BME280;33060;50.178;7.570;2022-10-17T08:19:40;97560.28;;;17.57;79.64
47330;BME280;33060;50.178;7.570;2022-10-17T08:22:07;97563.34;;;17.52;79.01
47330;BME280;33060;50.178;7.570;2022-10-17T08:24:34;97561.94;;;17.58;79.06
47330;BME280;33060;50.178;7.570;2022-10-17T08:27:01;97558.34;;;17.78;78.47
47330;BME280;33060;50.178;7.570;2022-10-17T08:29:27;97559.19;;;17.88;77.72
47330;BME280;33060;50.178;7.570;2022-10-17T08:31:54;97562.84;;;17.87;77.45
47330;BME280;33060;50.178;7.570;2022-10-17T08:34:27;97562.25;;;18.13;77.14
47330;BME280;33060;50.178;7.570;2022-10-17T08:36:54;97557.75;;;18.23;76.82
47330;BME280;33060;50.178;7.570;2022-10-17T08:39:20;97557.84;;;18.41;76.43
47330;BME280;33060;50.178;7.570;2022-10-17T08:41:58;97559.28;;;18.35;75.34
47330;BME280;33060;50.178;7.570;2022-10-17T08:47:34;97541.53;;;18.53;75.38
47330;BME280;33060;50.178;7.570;2022-10-17T08:50:04;97541.44;;;18.82;75.20
47330;BME280;33060;50.178;7.570;2022-10-17T08:52:57;97549.31;;;18.84;73.34
47330;BME280;33060;50.178;7.570;2022-10-17T08:55:34;97557.31;;;18.84;73.71
47330;BME280;33060;50.178;7.570;2022-10-17T08:58:19;97560.84;;;18.84;73.69
47330;BME280;33060;50.178;7.570;2022-10-17T09:03:50;97546.38;;;19.14;73.66
47330;BME280;33060;50.178;7.570;2022-10-17T09:06:33;97561.38;;;19.25;72.45
47330;BME280;33060;50.178;7.570;2022-10-17T09:09:15;97554.03;;;19.00;72.34
47330;BME280;33060;50.178;7.570;2022-10-17T09:12:00;97567.44;;;18.90;73.83
47330;BME280;33060;50.178;7.570;2022-10-17T09:17:20;97589.22;;;19.32;72.36
47330;BME280;33060;50.178;7.570;2022-10-17T09:20:03;97595.19;;;19.16;72.56
47330;BME280;33060;50.178;7.570;2022-10-17T09:22:40;97591.47;;;19.27;71.96
47330;BME280;33060;50.178;7.570;2022-10-17T09:25:12;97586.63;;;19.13;72.42
47330;BME280;33060;50.178;7.570;2022-10-17T09:27:45;97592.72;;;19.33;71.92
47330;BME280;33060;50.178;7.570;2022-10-17T09:30:49;97606.03;;;19.42;72.49
47330;BME280;33060;50.178;7.570;2022-10-17T09:33:25;97603.84;;;19.38;71.01
47330;BME280;33060;50.178;7.570;2022-10-17T09:36:16;97611.03;;;19.65;70.96
47330;BME280;33060;50.178;7.570;2022-10-17T09:38:49;97604.16;;;19.80;71.13
47330;BME280;33060;50.178;7.570;2022-10-17T09:41:39;97603.78;;;19.93;70.82
47330;BME280;33060;50.178;7.570;2022-10-17T09:44:20;97610.72;;;19.86;70.61
47330;BME280;33060;50.178;7.570;2022-10-17T09:49:40;97620.97;;;20.62;69.22
47330;BME280;33060;50.178;7.570;2022-10-17T09:52:11;97624.97;;;20.57;68.20
47330;BME280;33060;50.178;7.570;2022-10-17T09:54:43;97621.44;;;20.03;69.75
47330;BME280;33060;50.178;7.570;2022-10-17T09:57:12;97618.25;;;19.55;71.20
47330;BME280;33060;50.178;7.570;2022-10-17T10:00:00;97632.25;;;19.94;70.00
47330;BME280;33060;50.178;7.570;2022-10-17T10:02:29;97628.50;;;20.04;70.99
47330;BME280;33060;50.178;7.570;2022-10-17T10:07:36;97638.94;;;19.80;72.01
47330;BME280;33060;50.178;7.570;2022-10-17T10:10:06;97630.34;;;19.59;71.88
47330;BME280;33060;50.178;7.570;2022-10-17T10:12:37;97637.69;;;19.57;71.77
47330;BME280;33060;50.178;7.570;2022-10-17T10:15:34;97650.66;;;19.79;71.73
47330;BME280;33060;50.178;7.570;2022-10-17T10:18:01;97647.94;;;20.60;69.46
47330;BME280;33060;50.178;7.570;2022-10-17T10:20:34;97642.06;;;21.34;68.48
47330;BME280;33060;50.178;7.570;2022-10-17T10:23:15;97642.63;;;21.54;66.62
47330;BME280;33060;50.178;7.570;2022-10-17T10:28:16;97646.25;;;21.11;67.73
47330;BME280;33060;50.178;7.570;2022-10-17T10:30:47;97653.84;;;21.15;67.97
47330;BME280;33060;50.178;7.570;2022-10-17T10:33:14;97655.31;;;21.36;67.40
47330;BME280;33060;50.178;7.570;2022-10-17T10:35:41;97666.63;;;21.48;67.17
47330;BME280;33060;50.178;7.570;2022-10-17T10:38:14;97661.53;;;21.36;66.26
47330;BME280;33060;50.178;7.570;2022-10-17T10:40:51;97665.03;;;21.71;65.59
47330;BME280;33060;50.178;7.570;2022-10-17T10:43:41;97668.72;;;21.10;66.92
47330;BME280;33060;50.178;7.570;2022-10-17T10:46:20;97670.28;;;21.12;68.39
47330;BME280;33060;50.178;7.570;2022-10-17T10:51:22;97676.81;;;20.92;67.66
47330;BME280;33060;50.178;7.570;2022-10-17T10:56:38;97660.19;;;21.32;65.48
47330;BME280;33060;50.178;7.570;2022-10-17T10:59:11;97670.41;;;21.37;64.79
47330;BME280;33060;50.178;7.570;2022-10-17T11:01:48;97661.84;;;21.33;65.04
47330;BME280;33060;50.178;7.570;2022-10-17T11:07:07;97667.94;;;21.17;65.51
47330;BME280;33060;50.178;7.570;2022-10-17T11:12:17;97679.25;;;20.77;66.04
47330;BME280;33060;50.178;7.570;2022-10-17T11:14:53;97676.13;;;20.64;66.68
47330;BME280;33060;50.178;7.570;2022-10-17T11:22:20;97683.66;;;20.15;67.83
47330;BME280;33060;50.178;7.570;2022-10-17T11:25:02;97685.56;;;20.50;66.96
47330;BME280;33060;50.178;7.570;2022-10-17T11:27:30;97698.94;;;20.86;65.38
47330;BME280;33060;50.178;7.570;2022-10-17T11:29:57;97701.13;;;21.16;64.70
47330;BME280;33060;50.178;7.570;2022-10-17T11:32:29;97711.03;;;21.42;63.94
47330;BME280;33060;50.178;7.570;2022-10-17T11:35:23;97704.97;;;21.32;64.17
47330;BME280;33060;50.178;7.570;2022-10-17T11:37:57;97705.97;;;21.31;64.29
47330;BME280;33060;50.178;7.570;2022-10-17T11:40:30;97695.31;;;21.47;64.42
47330;BME280;33060;50.178;7.570;2022-10-17T11:43:02;97701.09;;;21.68;63.99
47330;BME280;33060;50.178;7.570;2022-10-17T11:45:35;97708.69;;;21.73;63.51
47330;BME280;33060;50.178;7.570;2022-10-17T11:48:15;97704.88;;;21.84;63.23
47330;BME280;33060;50.178;7.570;2022-10-17T11:50:48;97717.19;;;21.60;63.69
47330;BME280;33060;50.178;7.570;2022-10-17T11:53:58;97724.66;;;21.23;64.46
47330;BME280;33060;50.178;7.570;2022-10-17T11:56:37;97714.53;;;21.34;65.06
47330;BME280;33060;50.178;7.570;2022-10-17T12:02:26;97697.97;;;21.39;65.26
47330;BME280;33060;50.178;7.570;2022-10-17T12:05:03;97709.75;;;21.54;64.64
47330;BME280;33060;50.178;7.570;2022-10-17T12:07:46;97716.38;;;21.34;65.66
47330;BME280;33060;50.178;7.570;2022-10-17T12:10:27;97707.56;;;21.24;66.52
47330;BME280;33060;50.178;7.570;2022-10-17T12:15:57;97712.59;;;21.01;66.80
47330;BME280;33060;50.178;7.570;2022-10-17T12:18:43;97701.94;;;21.35;66.14
47330;BME280;33060;50.178;7.570;2022-10-17T12:21:10;97697.41;;;21.69;65.10
47330;BME280;33060;50.178;7.570;2022-10-17T12:23:37;97687.75;;;21.85;64.63
47330;BME280;33060;50.178;7.570;2022-10-17T12:26:07;97690.53;;;22.09;63.95
47330;BME280;33060;50.178;7.570;2022-10-17T12:28:44;97685.91;;;21.85;64.04
47330;BME280;33060;50.178;7.570;2022-10-17T12:34:03;97695.81;;;21.85;63.91
47330;BME280;33060;50.178;7.570;2022-10-17T13:00:18;97703.50;;;21.80;63.17
47330;BME280;33060;50.178;7.570;2022-10-17T13:02:47;97710.09;;;21.93;62.96
47330;BME280;33060;50.178;7.570;2022-10-17T13:05:21;97708.47;;;22.00;63.53
47330;BME280;33060;50.178;7.570;2022-10-17T13:07:50;97716.53;;;22.00;62.03
47330;BME280;33060;50.178;7.570;2022-10-17T13:10:23;97720.47;;;21.88;61.51
47330;BME280;33060;50.178;7.570;2022-10-17T13:13:02;97736.59;;;21.88;61.63
47330;BME280;33060;50.178;7.570;2022-10-17T13:15:30;97730.06;;;21.83;60.72
47330;BME280;33060;50.178;7.570;2022-10-17T13:17:59;97733.91;;;21.88;61.28
47330;BME280;33060;50.178;7.570;2022-10-17T13:20:28;97742.97;;;21.87;60.96
47330;BME280;33060;50.178;7.570;2022-10-17T13:22:57;97745.44;;;21.72;61.18
47330;BME280;33060;50.178;7.570;2022-10-17T13:25:25;97751.25;;;21.60;62.37
47330;BME280;33060;50.178;7.570;2022-10-17T13:28:03;97752.28;;;21.67;62.16
47330;BME280;33060;50.178;7.570;2022-10-17T13:30:33;97755.25;;;21.56;62.27
47330;BME280;33060;50.178;7.570;2022-10-17T13:33:01;97750.06;;;21.62;62.75
47330;BME280;33060;50.178;7.570;2022-10-17T13:35:31;97754.50;;;21.37;63.34
47330;BME280;33060;50.178;7.570;2022-10-17T13:38:26;97753.94;;;21.34;64.10
47330;BME280;33060;50.178;7.570;2022-10-17T13:40:54;97769.41;;;20.96;65.04
47330;BME280;33060;50.178;7.570;2022-10-17T13:43:36;97762.91;;;20.81;65.45
47330;BME280;33060;50.178;7.570;2022-10-17T13:46:04;97773.53;;;20.73;66.07
47330;BME280;33060;50.178;7.570;2022-10-17T13:48:51;97771.38;;;20.58;66.58
47330;BME280;33060;50.178;7.570;2022-10-17T13:51:18;97773.78;;;20.62;66.71
47330;BME280;33060;50.178;7.570;2022-10-17T13:53:45;97778.06;;;20.54;67.10
47330;BME280;33060;50.178;7.570;2022-10-17T13:59:05;97779.00;;;20.63;66.83
47330;BME280;33060;50.178;7.570;2022-10-17T14:01:39;97778.91;;;20.73;67.05
47330;BME280;33060;50.178;7.570;2022-10-17T14:04:06;97765.34;;;20.74;67.16
47330;BME280;33060;50.178;7.570;2022-10-17T14:06:43;97771.19;;;20.87;66.85
47330;BME280;33060;50.178;7.570;2022-10-17T14:09:21;97769.53;;;21.12;65.41
47330;BME280;33060;50.178;7.570;2022-10-17T14:14:24;97764.91;;;21.23;65.26
47330;BME280;33060;50.178;7.570;2022-10-17T14:16:51;97763.06;;;21.23;65.91
47330;BME280;33060;50.178;7.570;2022-10-17T14:24:39;97764.31;;;21.11;66.09
47330;BME280;33060;50.178;7.570;2022-10-17T14:27:34;97770.66;;;21.10;66.27
47330;BME280;33060;50.178;7.570;2022-10-17T14:30:06;97768.34;;;20.89;66.69
47330;BME280;33060;50.178;7.570;2022-10-17T14:32:35;97768.56;;;20.78;66.57
47330;BME280;33060;50.178;7.570;2022-10-17T14:35:04;97773.22;;;20.94;65.92
47330;BME280;33060;50.178;7.570;2022-10-17T14:37:52;97762.34;;;20.95;66.33
47330;BME280;33060;50.178;7.570;2022-10-17T14:40:24;97761.66;;;20.93;66.00
47330;BME280;33060;50.178;7.570;2022-10-17T14:42:54;97754.69;;;20.82;66.55
47330;BME280;33060;50.178;7.570;2022-10-17T14:45:26;97768.25;;;20.63;67.21
47330;BME280;33060;50.178;7.570;2022-10-17T14:47:55;97771.34;;;20.50;67.79
47330;BME280;33060;50.178;7.570;2022-10-17T14:50:25;97768.66;;;20.41;68.25
47330;BME280;33060;50.178;7.570;2022-10-17T14:55:54;97776.34;;;20.36;68.75
47330;BME280;33060;50.178;7.570;2022-10-17T14:58:28;97790.63;;;20.54;68.67
47330;BME280;33060;50.178;7.570;2022-10-17T15:00:57;97790.88;;;20.60;67.79
47330;BME280;33060;50.178;7.570;2022-10-17T15:03:24;97788.34;;;20.59;68.24
47330;BME280;33060;50.178;7.570;2022-10-17T15:05:53;97783.34;;;20.46;68.33
47330;BME280;33060;50.178;7.570;2022-10-17T15:08:22;97788.41;;;20.40;69.39
47330;BME280;33060;50.178;7.570;2022-10-17T15:10:49;97800.13;;;20.39;69.13
47330;BME280;33060;50.178;7.570;2022-10-17T15:13:16;97812.22;;;20.25;69.42
47330;BME280;33060;50.178;7.570;2022-10-17T15:16:20;97810.19;;;20.09;69.66
47330;BME280;33060;50.178;7.570;2022-10-17T15:18:48;97807.56;;;19.99;70.33